sensor_id;sensor_type;location;lat;lon;timestamp;P1;P2;P0
47741;PMS5003;33504;52.066;6.096;2023-07-13T00:02:18;7;6;
47741;PMS5003;33504;52.066;6.096;2023-07-13T00:04:45;13;11;
47741;PMS5003;33504;52.066;6.096;2023-07-13T00:07:13;10;9;
47741;PMS5003;33504;52.066;6.096;2023-07-13T00:09:40;12;11;
47741;PMS5003;33504;52.066;6.096;2023-07-13T00:12:21;12;11;
47741;PMS5003;33504;52.066;6.096;2023-07-13T00:14:50;13;10;
47741;PMS5003;33504;52.066;6.096;2023-07-13T00:17:18;12;9;
47741;PMS5003;33504;52.066;6.096;2023-07-13T00:19:45;6;6;
47741;PMS5003;33504;52.066;6.096;2023-07-13T00:22:13;12;12;
47741;PMS5003;33504;52.066;6.096;2023-07-13T00:24:40;8;7;
47741;PMS5003;33504;52.066;6.096;2023-07-13T00:27:08;11;9;
47741;PMS5003;33504;52.066;6.096;2023-07-13T00:29:35;8;7;
47741;PMS5003;33504;52.066;6.096;2023-07-13T00:32:04;5;5;
47741;PMS5003;33504;52.066;6.096;2023-07-13T00:34:33;4;4;
47741;PMS5003;33504;52.066;6.096;2023-07-13T00:37:00;6;5;
47741;PMS5003;33504;52.066;6.096;2023-07-13T00:39:28;4;4;
47741;PMS5003;33504;52.066;6.096;2023-07-13T00:41:55;6;5;
47741;PMS5003;33504;52.066;6.096;2023-07-13T00:44:23;5;5;
47741;PMS5003;33504;52.066;6.096;2023-07-13T00:46:50;5;4;
47741;PMS5003;33504;52.066;6.096;2023-07-13T00:49:19;6;5;
47741;PMS5003;33504;52.066;6.096;2023-07-13T00:51:49;5;3;
47741;PMS5003;33504;52.066;6.096;2023-07-13T00:54:21;4;2;
47741;PMS5003;33504;52.066;6.096;2023-07-13T00:56:51;4;4;
47741;PMS5003;33504;52.066;6.096;2023-07-13T00:59:21;4;4;
47741;PMS5003;33504;52.066;6.096;2023-07-13T01:01:50;4;4;
47741;PMS5003;33504;52.066;6.096;2023-07-13T01:04:18;7;5;
47741;PMS5003;33504;52.066;6.096;2023-07-13T01:06:45;6;5;
47741;PMS5003;33504;52.066;6.096;2023-07-13T01:09:14;7;4;
47741;PMS5003;33504;52.066;6.096;2023-07-13T01:11:42;5;4;
47741;PMS5003;33504;52.066;6.096;2023-07-13T01:14:09;5;5;
47741;PMS5003;33504;52.066;6.096;2023-07-13T01:16:37;3;3;
47741;PMS5003;33504;52.066;6.096;2023-07-13T01:19:24;4;4;
47741;PMS5003;33504;52.066;6.096;2023-07-13T01:21:58;4;4;
47741;PMS5003;33504;52.066;6.096;2023-07-13T01:24:25;6;3;
47741;PMS5003;33504;52.066;6.096;2023-07-13T01:26:53;3;3;
47741;PMS5003;33504;52.066;6.096;2023-07-13T01:29:20;4;4;
47741;PMS5003;33504;52.066;6.096;2023-07-13T01:31:48;2;2;
47741;PMS5003;33504;52.066;6.096;2023-07-13T01:34:15;6;4;
47741;PMS5003;33504;52.066;6.096;2023-07-13T01:36:43;2;2;
47741;PMS5003;33504;52.066;6.096;2023-07-13T01:39:10;4;3;
47741;PMS5003;33504;52.066;6.096;2023-07-13T01:41:38;4;3;
47741;PMS5003;33504;52.066;6.096;2023-07-13T01:44:05;4;3;
47741;PMS5003;33504;52.066;6.096;2023-07-13T01:46:33;6;4;
47741;PMS5003;33504;52.066;6.096;2023-07-13T01:49:00;4;4;
47741;PMS5003;33504;52.066;6.096;2023-07-13T01:51:28;3;3;
47741;PMS5003;33504;52.066;6.096;2023-07-13T01:53:55;3;3;
47741;PMS5003;33504;52.066;6.096;2023-07-13T01:56:23;4;4;
47741;PMS5003;33504;52.066;6.096;2023-07-13T01:58:51;3;3;
47741;PMS5003;33504;52.066;6.096;2023-07-13T02:01:19;4;4;
47741;PMS5003;33504;52.066;6.096;2023-07-13T02:03:46;4;4;
47741;PMS5003;33504;52.066;6.096;2023-07-13T02:06:14;5;4;
47741;PMS5003;33504;52.066;6.096;2023-07-13T02:08:41;4;4;
47741;PMS5003;33504;52.066;6.096;2023-07-13T02:11:09;3;3;
47741;PMS5003;33504;52.066;6.096;2023-07-13T02:13:36;4;4;
47741;PMS5003;33504;52.066;6.096;2023-07-13T02:16:04;4;4;
47741;PMS5003;33504;52.066;6.096;2023-07-13T02:18:31;2;2;
47741;PMS5003;33504;52.066;6.096;2023-07-13T02:20:59;6;5;
47741;PMS5003;33504;52.066;6.096;2023-07-13T02:23:26;4;4;
47741;PMS5003;33504;52.066;6.096;2023-07-13T02:25:55;4;4;
47741;PMS5003;33504;52.066;6.096;2023-07-13T02:28:23;5;5;
47741;PMS5003;33504;52.066;6.096;2023-07-13T02:30:50;3;3;
47741;PMS5003;33504;52.066;6.096;2023-07-13T02:33:18;5;5;
47741;PMS5003;33504;52.066;6.096;2023-07-13T02:35:45;4;4;
47741;PMS5003;33504;52.066;6.096;2023-07-13T02:38:12;4;4;
47741;PMS5003;33504;52.066;6.096;2023-07-13T02:40:39;5;4;
47741;PMS5003;33504;52.066;6.096;2023-07-13T02:43:06;6;6;
47741;PMS5003;33504;52.066;6.096;2023-07-13T02:45:34;7;6;
47741;PMS5003;33504;52.066;6.096;2023-07-13T02:48:02;6;6;
47741;PMS5003;33504;52.066;6.096;2023-07-13T02:50:29;5;4;
47741;PMS5003;33504;52.066;6.096;2023-07-13T02:52:56;12;9;
47741;PMS5003;33504;52.066;6.096;2023-07-13T02:55:23;5;5;
47741;PMS5003;33504;52.066;6.096;2023-07-13T02:57:50;6;6;
47741;PMS5003;33504;52.066;6.096;2023-07-13T03:00:18;8;5;
47741;PMS5003;33504;52.066;6.096;2023-07-13T03:02:45;7;6;
47741;PMS5003;33504;52.066;6.096;2023-07-13T03:05:13;5;5;
47741;PMS5003;33504;52.066;6.096;2023-07-13T03:07:41;6;5;
47741;PMS5003;33504;52.066;6.096;2023-07-13T03:10:09;5;4;
47741;PMS5003;33504;52.066;6.096;2023-07-13T03:12:36;6;5;
47741;PMS5003;33504;52.066;6.096;2023-07-13T03:15:03;6;4;
47741;PMS5003;33504;52.066;6.096;2023-07-13T03:17:32;5;5;
47741;PMS5003;33504;52.066;6.096;2023-07-13T03:19:58;6;5;
47741;PMS5003;33504;52.066;6.096;2023-07-13T03:22:26;6;5;
47741;PMS5003;33504;52.066;6.096;2023-07-13T03:24:54;7;5;
47741;PMS5003;33504;52.066;6.096;2023-07-13T03:27:22;7;7;
47741;PMS5003;33504;52.066;6.096;2023-07-13T03:29:49;7;6;
47741;PMS5003;33504;52.066;6.096;2023-07-13T03:32:16;9;9;
47741;PMS5003;33504;52.066;6.096;2023-07-13T03:34:43;6;6;
47741;PMS5003;33504;52.066;6.096;2023-07-13T03:37:11;6;5;
47741;PMS5003;33504;52.066;6.096;2023-07-13T03:39:38;9;8;
47741;PMS5003;33504;52.066;6.096;2023-07-13T03:42:06;5;5;
47741;PMS5003;33504;52.066;6.096;2023-07-13T03:44:34;6;5;
47741;PMS5003;33504;52.066;6.096;2023-07-13T03:47:02;9;8;
47741;PMS5003;33504;52.066;6.096;2023-07-13T03:49:29;7;7;
47741;PMS5003;33504;52.066;6.096;2023-07-13T03:51:56;9;7;
47741;PMS5003;33504;52.066;6.096;2023-07-13T03:54:24;7;6;
47741;PMS5003;33504;52.066;6.096;2023-07-13T03:56:51;7;6;
47741;PMS5003;33504;52.066;6.096;2023-07-13T03:59:18;7;7;
47741;PMS5003;33504;52.066;6.096;2023-07-13T04:01:46;6;5;
47741;PMS5003;33504;52.066;6.096;2023-07-13T04:04:13;7;7;
47741;PMS5003;33504;52.066;6.096;2023-07-13T04:06:41;10;10;
47741;PMS5003;33504;52.066;6.096;2023-07-13T04:09:08;9;8;
47741;PMS5003;33504;52.066;6.096;2023-07-13T04:11:36;9;8;
47741;PMS5003;33504;52.066;6.096;2023-07-13T04:14:03;9;8;
47741;PMS5003;33504;52.066;6.096;2023-07-13T04:16:31;9;7;
47741;PMS5003;33504;52.066;6.096;2023-07-13T04:18:58;8;6;
47741;PMS5003;33504;52.066;6.096;2023-07-13T04:21:26;8;7;
47741;PMS5003;33504;52.066;6.096;2023-07-13T04:23:54;7;6;
47741;PMS5003;33504;52.066;6.096;2023-07-13T04:26:22;7;7;
47741;PMS5003;33504;52.066;6.096;2023-07-13T04:28:50;8;7;
47741;PMS5003;33504;52.066;6.096;2023-07-13T04:31:17;9;8;
47741;PMS5003;33504;52.066;6.096;2023-07-13T04:33:45;9;9;
47741;PMS5003;33504;52.066;6.096;2023-07-13T04:36:13;7;6;
47741;PMS5003;33504;52.066;6.096;2023-07-13T04:38:41;9;8;
47741;PMS5003;33504;52.066;6.096;2023-07-13T04:41:08;10;8;
47741;PMS5003;33504;52.066;6.096;2023-07-13T04:43:36;8;8;
47741;PMS5003;33504;52.066;6.096;2023-07-13T04:46:03;12;9;
47741;PMS5003;33504;52.066;6.096;2023-07-13T04:48:31;10;7;
47741;PMS5003;33504;52.066;6.096;2023-07-13T04:50:59;10;10;
47741;PMS5003;33504;52.066;6.096;2023-07-13T04:53:27;11;10;
47741;PMS5003;33504;52.066;6.096;2023-07-13T04:55:55;12;10;
47741;PMS5003;33504;52.066;6.096;2023-07-13T04:58:23;8;8;
47741;PMS5003;33504;52.066;6.096;2023-07-13T05:00:50;10;9;
47741;PMS5003;33504;52.066;6.096;2023-07-13T05:03:18;7;6;
47741;PMS5003;33504;52.066;6.096;2023-07-13T05:05:54;9;9;
47741;PMS5003;33504;52.066;6.096;2023-07-13T05:08:23;12;12;
47741;PMS5003;33504;52.066;6.096;2023-07-13T05:10:50;12;11;
47741;PMS5003;33504;52.066;6.096;2023-07-13T05:13:17;11;10;
47741;PMS5003;33504;52.066;6.096;2023-07-13T05:15:44;9;7;
47741;PMS5003;33504;52.066;6.096;2023-07-13T05:18:12;11;11;
47741;PMS5003;33504;52.066;6.096;2023-07-13T05:20:39;10;10;
47741;PMS5003;33504;52.066;6.096;2023-07-13T05:23:07;11;11;
47741;PMS5003;33504;52.066;6.096;2023-07-13T05:25:34;9;9;
47741;PMS5003;33504;52.066;6.096;2023-07-13T05:28:02;12;10;
47741;PMS5003;33504;52.066;6.096;2023-07-13T05:30:29;14;12;
47741;PMS5003;33504;52.066;6.096;2023-07-13T05:32:57;15;14;
47741;PMS5003;33504;52.066;6.096;2023-07-13T05:35:24;15;13;
47741;PMS5003;33504;52.066;6.096;2023-07-13T05:37:51;13;13;
47741;PMS5003;33504;52.066;6.096;2023-07-13T05:40:18;13;12;
47741;PMS5003;33504;52.066;6.096;2023-07-13T05:42:46;21;19;
47741;PMS5003;33504;52.066;6.096;2023-07-13T05:45:13;12;12;
47741;PMS5003;33504;52.066;6.096;2023-07-13T05:47:40;18;17;
47741;PMS5003;33504;52.066;6.096;2023-07-13T05:50:08;21;20;
47741;PMS5003;33504;52.066;6.096;2023-07-13T05:52:35;16;14;
47741;PMS5003;33504;52.066;6.096;2023-07-13T05:55:02;19;17;
47741;PMS5003;33504;52.066;6.096;2023-07-13T05:57:30;18;18;
47741;PMS5003;33504;52.066;6.096;2023-07-13T05:59:58;23;22;
47741;PMS5003;33504;52.066;6.096;2023-07-13T06:02:25;22;21;
47741;PMS5003;33504;52.066;6.096;2023-07-13T06:04:52;20;18;
47741;PMS5003;33504;52.066;6.096;2023-07-13T06:07:19;17;16;
47741;PMS5003;33504;52.066;6.096;2023-07-13T06:09:46;19;18;
47741;PMS5003;33504;52.066;6.096;2023-07-13T06:12:13;21;19;
47741;PMS5003;33504;52.066;6.096;2023-07-13T06:14:41;17;16;
47741;PMS5003;33504;52.066;6.096;2023-07-13T06:17:08;26;24;
47741;PMS5003;33504;52.066;6.096;2023-07-13T06:19:35;24;21;
47741;PMS5003;33504;52.066;6.096;2023-07-13T06:22:02;23;22;
47741;PMS5003;33504;52.066;6.096;2023-07-13T06:24:29;26;23;
47741;PMS5003;33504;52.066;6.096;2023-07-13T06:26:57;22;20;
47741;PMS5003;33504;52.066;6.096;2023-07-13T06:29:24;25;22;
47741;PMS5003;33504;52.066;6.096;2023-07-13T06:31:52;21;20;
47741;PMS5003;33504;52.066;6.096;2023-07-13T06:34:19;22;21;
47741;PMS5003;33504;52.066;6.096;2023-07-13T06:36:46;22;22;
47741;PMS5003;33504;52.066;6.096;2023-07-13T06:39:13;29;23;
47741;PMS5003;33504;52.066;6.096;2023-07-13T06:41:40;22;21;
47741;PMS5003;33504;52.066;6.096;2023-07-13T06:44:08;23;22;
47741;PMS5003;33504;52.066;6.096;2023-07-13T06:46:35;22;21;
47741;PMS5003;33504;52.066;6.096;2023-07-13T06:49:02;22;21;
47741;PMS5003;33504;52.066;6.096;2023-07-13T06:51:30;23;21;
47741;PMS5003;33504;52.066;6.096;2023-07-13T06:53:57;33;30;
47741;PMS5003;33504;52.066;6.096;2023-07-13T06:56:24;37;34;
47741;PMS5003;33504;52.066;6.096;2023-07-13T06:58:51;27;26;
47741;PMS5003;33504;52.066;6.096;2023-07-13T07:01:19;32;30;
47741;PMS5003;33504;52.066;6.096;2023-07-13T07:03:46;24;24;
47741;PMS5003;33504;52.066;6.096;2023-07-13T07:06:14;28;23;
47741;PMS5003;33504;52.066;6.096;2023-07-13T07:08:42;26;24;
47741;PMS5003;33504;52.066;6.096;2023-07-13T07:11:11;24;24;
47741;PMS5003;33504;52.066;6.096;2023-07-13T07:13:40;27;26;
47741;PMS5003;33504;52.066;6.096;2023-07-13T07:16:07;32;28;
47741;PMS5003;33504;52.066;6.096;2023-07-13T07:18:34;29;28;
47741;PMS5003;33504;52.066;6.096;2023-07-13T07:21:01;26;24;
47741;PMS5003;33504;52.066;6.096;2023-07-13T07:23:29;26;25;
47741;PMS5003;33504;52.066;6.096;2023-07-13T07:25:56;26;23;
47741;PMS5003;33504;52.066;6.096;2023-07-13T07:28:24;26;24;
47741;PMS5003;33504;52.066;6.096;2023-07-13T07:30:52;24;22;
47741;PMS5003;33504;52.066;6.096;2023-07-13T07:33:20;26;26;
47741;PMS5003;33504;52.066;6.096;2023-07-13T07:35:47;22;22;
47741;PMS5003;33504;52.066;6.096;2023-07-13T07:38:15;27;26;
47741;PMS5003;33504;52.066;6.096;2023-07-13T07:40:42;24;24;
47741;PMS5003;33504;52.066;6.096;2023-07-13T07:43:10;30;28;
47741;PMS5003;33504;52.066;6.096;2023-07-13T07:45:38;25;24;
47741;PMS5003;33504;52.066;6.096;2023-07-13T07:48:07;28;26;
47741;PMS5003;33504;52.066;6.096;2023-07-13T07:50:34;24;23;
47741;PMS5003;33504;52.066;6.096;2023-07-13T07:53:01;28;27;
47741;PMS5003;33504;52.066;6.096;2023-07-13T07:55:28;24;24;
47741;PMS5003;33504;52.066;6.096;2023-07-13T07:57:56;24;23;
47741;PMS5003;33504;52.066;6.096;2023-07-13T08:00:23;32;30;
47741;PMS5003;33504;52.066;6.096;2023-07-13T08:02:51;29;28;
47741;PMS5003;33504;52.066;6.096;2023-07-13T08:05:18;34;31;
47741;PMS5003;33504;52.066;6.096;2023-07-13T08:07:46;26;24;
47741;PMS5003;33504;52.066;6.096;2023-07-13T08:10:13;26;26;
47741;PMS5003;33504;52.066;6.096;2023-07-13T08:12:40;27;26;
47741;PMS5003;33504;52.066;6.096;2023-07-13T08:15:09;31;30;
47741;PMS5003;33504;52.066;6.096;2023-07-13T08:17:38;27;25;
47741;PMS5003;33504;52.066;6.096;2023-07-13T08:20:05;26;25;
47741;PMS5003;33504;52.066;6.096;2023-07-13T08:22:34;26;23;
47741;PMS5003;33504;52.066;6.096;2023-07-13T08:25:01;25;25;
47741;PMS5003;33504;52.066;6.096;2023-07-13T08:27:28;26;25;
47741;PMS5003;33504;52.066;6.096;2023-07-13T08:29:55;24;21;
47741;PMS5003;33504;52.066;6.096;2023-07-13T08:32:23;25;23;
47741;PMS5003;33504;52.066;6.096;2023-07-13T08:34:50;23;23;
47741;PMS5003;33504;52.066;6.096;2023-07-13T08:37:18;44;40;
47741;PMS5003;33504;52.066;6.096;2023-07-13T08:39:45;22;20;
47741;PMS5003;33504;52.066;6.096;2023-07-13T08:42:14;30;29;
47741;PMS5003;33504;52.066;6.096;2023-07-13T08:44:50;34;32;
47741;PMS5003;33504;52.066;6.096;2023-07-13T08:47:24;34;31;
47741;PMS5003;33504;52.066;6.096;2023-07-13T08:49:54;55;54;
47741;PMS5003;33504;52.066;6.096;2023-07-13T08:52:25;32;31;
47741;PMS5003;33504;52.066;6.096;2023-07-13T08:55:00;20;19;
47741;PMS5003;33504;52.066;6.096;2023-07-13T08:57:33;18;17;
47741;PMS5003;33504;52.066;6.096;2023-07-13T09:00:01;19;16;
47741;PMS5003;33504;52.066;6.096;2023-07-13T09:02:32;15;14;
47741;PMS5003;33504;52.066;6.096;2023-07-13T09:05:08;16;16;
47741;PMS5003;33504;52.066;6.096;2023-07-13T09:07:41;19;19;
47741;PMS5003;33504;52.066;6.096;2023-07-13T09:10:20;19;19;
47741;PMS5003;33504;52.066;6.096;2023-07-13T09:12:57;36;36;
47741;PMS5003;33504;52.066;6.096;2023-07-13T09:15:32;30;29;
47741;PMS5003;33504;52.066;6.096;2023-07-13T09:18:07;32;30;
47741;PMS5003;33504;52.066;6.096;2023-07-13T09:20:38;40;38;
47741;PMS5003;33504;52.066;6.096;2023-07-13T09:23:12;58;57;
47741;PMS5003;33504;52.066;6.096;2023-07-13T09:25:43;50;48;
47741;PMS5003;33504;52.066;6.096;2023-07-13T09:28:15;33;32;
47741;PMS5003;33504;52.066;6.096;2023-07-13T09:30:48;27;26;
47741;PMS5003;33504;52.066;6.096;2023-07-13T09:33:18;28;27;
47741;PMS5003;33504;52.066;6.096;2023-07-13T09:35:45;15;14;
47741;PMS5003;33504;52.066;6.096;2023-07-13T09:38:13;25;23;
47741;PMS5003;33504;52.066;6.096;2023-07-13T09:40:46;18;16;
47741;PMS5003;33504;52.066;6.096;2023-07-13T09:43:23;16;16;
47741;PMS5003;33504;52.066;6.096;2023-07-13T09:45:50;14;14;
47741;PMS5003;33504;52.066;6.096;2023-07-13T09:48:17;19;19;
47741;PMS5003;33504;52.066;6.096;2023-07-13T09:50:45;18;17;
47741;PMS5003;33504;52.066;6.096;2023-07-13T09:53:13;15;13;
47741;PMS5003;33504;52.066;6.096;2023-07-13T09:55:42;20;16;
47741;PMS5003;33504;52.066;6.096;2023-07-13T09:58:10;22;21;
47741;PMS5003;33504;52.066;6.096;2023-07-13T10:00:39;36;34;
47741;PMS5003;33504;52.066;6.096;2023-07-13T10:03:14;33;32;
47741;PMS5003;33504;52.066;6.096;2023-07-13T10:05:45;37;35;
47741;PMS5003;33504;52.066;6.096;2023-07-13T10:08:16;35;34;
47741;PMS5003;33504;52.066;6.096;2023-07-13T10:10:44;34;33;
47741;PMS5003;33504;52.066;6.096;2023-07-13T10:13:23;31;30;
47741;PMS5003;33504;52.066;6.096;2023-07-13T10:15:53;32;32;
47741;PMS5003;33504;52.066;6.096;2023-07-13T10:18:22;28;28;
47741;PMS5003;33504;52.066;6.096;2023-07-13T10:20:51;32;32;
47741;PMS5003;33504;52.066;6.096;2023-07-13T10:23:25;40;40;
47741;PMS5003;33504;52.066;6.096;2023-07-13T10:25:57;21;21;
47741;PMS5003;33504;52.066;6.096;2023-07-13T10:28:27;18;17;
47741;PMS5003;33504;52.066;6.096;2023-07-13T10:30:58;11;11;
47741;PMS5003;33504;52.066;6.096;2023-07-13T10:33:28;11;10;
47741;PMS5003;33504;52.066;6.096;2023-07-13T10:35:57;12;12;
47741;PMS5003;33504;52.066;6.096;2023-07-13T10:38:33;15;15;
47741;PMS5003;33504;52.066;6.096;2023-07-13T10:41:01;12;11;
47741;PMS5003;33504;52.066;6.096;2023-07-13T10:43:33;12;11;
47741;PMS5003;33504;52.066;6.096;2023-07-13T10:46:02;15;14;
47741;PMS5003;33504;52.066;6.096;2023-07-13T10:48:32;12;12;
47741;PMS5003;33504;52.066;6.096;2023-07-13T10:51:01;14;14;
47741;PMS5003;33504;52.066;6.096;2023-07-13T10:53:31;14;13;
47741;PMS5003;33504;52.066;6.096;2023-07-13T10:56:02;11;10;
47741;PMS5003;33504;52.066;6.096;2023-07-13T10:58:32;12;12;
47741;PMS5003;33504;52.066;6.096;2023-07-13T11:01:03;11;11;
47741;PMS5003;33504;52.066;6.096;2023-07-13T11:03:36;13;12;
47741;PMS5003;33504;52.066;6.096;2023-07-13T11:06:06;13;13;
47741;PMS5003;33504;52.066;6.096;2023-07-13T11:08:35;14;14;
47741;PMS5003;33504;52.066;6.096;2023-07-13T11:11:31;12;11;
47741;PMS5003;33504;52.066;6.096;2023-07-13T11:14:01;12;11;
47741;PMS5003;33504;52.066;6.096;2023-07-13T11:16:34;11;11;
47741;PMS5003;33504;52.066;6.096;2023-07-13T11:19:27;9;9;
47741;PMS5003;33504;52.066;6.096;2023-07-13T11:22:13;8;8;
47741;PMS5003;33504;52.066;6.096;2023-07-13T11:25:00;11;9;
47741;PMS5003;33504;52.066;6.096;2023-07-13T11:27:37;12;11;
47741;PMS5003;33504;52.066;6.096;2023-07-13T11:30:14;15;13;
47741;PMS5003;33504;52.066;6.096;2023-07-13T11:33:01;19;17;
47741;PMS5003;33504;52.066;6.096;2023-07-13T11:35:31;24;23;
47741;PMS5003;33504;52.066;6.096;2023-07-13T11:38:02;37;37;
47741;PMS5003;33504;52.066;6.096;2023-07-13T11:40:35;25;25;
47741;PMS5003;33504;52.066;6.096;2023-07-13T11:43:02;64;64;
47741;PMS5003;33504;52.066;6.096;2023-07-13T11:45:34;30;30;
47741;PMS5003;33504;52.066;6.096;2023-07-13T11:48:01;10;10;
47741;PMS5003;33504;52.066;6.096;2023-07-13T11:50:28;10;10;
47741;PMS5003;33504;52.066;6.096;2023-07-13T11:52:57;10;10;
47741;PMS5003;33504;52.066;6.096;2023-07-13T11:55:25;11;10;
47741;PMS5003;33504;52.066;6.096;2023-07-13T11:57:56;10;9;
47741;PMS5003;33504;52.066;6.096;2023-07-13T12:00:26;10;10;
47741;PMS5003;33504;52.066;6.096;2023-07-13T12:02:56;12;12;
47741;PMS5003;33504;52.066;6.096;2023-07-13T12:05:26;35;33;
47741;PMS5003;33504;52.066;6.096;2023-07-13T12:07:53;16;16;
47741;PMS5003;33504;52.066;6.096;2023-07-13T12:10:22;8;8;
47741;PMS5003;33504;52.066;6.096;2023-07-13T12:12:52;10;10;
47741;PMS5003;33504;52.066;6.096;2023-07-13T12:15:21;9;9;
47741;PMS5003;33504;52.066;6.096;2023-07-13T12:17:49;13;11;
47741;PMS5003;33504;52.066;6.096;2023-07-13T12:20:19;9;9;
47741;PMS5003;33504;52.066;6.096;2023-07-13T12:22:49;9;9;
47741;PMS5003;33504;52.066;6.096;2023-07-13T12:25:17;8;8;
47741;PMS5003;33504;52.066;6.096;2023-07-13T12:27:47;13;12;
47741;PMS5003;33504;52.066;6.096;2023-07-13T12:30:22;22;22;
47741;PMS5003;33504;52.066;6.096;2023-07-13T12:32:59;24;23;
47741;PMS5003;33504;52.066;6.096;2023-07-13T12:35:29;56;56;
47741;PMS5003;33504;52.066;6.096;2023-07-13T12:37:57;10;9;
47741;PMS5003;33504;52.066;6.096;2023-07-13T12:40:25;11;9;
47741;PMS5003;33504;52.066;6.096;2023-07-13T12:42:56;8;8;
47741;PMS5003;33504;52.066;6.096;2023-07-13T12:45:24;12;10;
47741;PMS5003;33504;52.066;6.096;2023-07-13T12:47:54;11;11;
47741;PMS5003;33504;52.066;6.096;2023-07-13T12:50:23;9;9;
47741;PMS5003;33504;52.066;6.096;2023-07-13T12:52:56;13;12;
47741;PMS5003;33504;52.066;6.096;2023-07-13T12:55:27;11;9;
47741;PMS5003;33504;52.066;6.096;2023-07-13T12:57:55;12;12;
47741;PMS5003;33504;52.066;6.096;2023-07-13T13:00:24;11;11;
47741;PMS5003;33504;52.066;6.096;2023-07-13T13:02:55;11;10;
47741;PMS5003;33504;52.066;6.096;2023-07-13T13:05:25;12;11;
47741;PMS5003;33504;52.066;6.096;2023-07-13T13:07:53;12;11;
47741;PMS5003;33504;52.066;6.096;2023-07-13T13:10:20;10;9;
47741;PMS5003;33504;52.066;6.096;2023-07-13T13:12:47;11;11;
47741;PMS5003;33504;52.066;6.096;2023-07-13T13:15:15;10;10;
47741;PMS5003;33504;52.066;6.096;2023-07-13T13:17:42;10;10;
47741;PMS5003;33504;52.066;6.096;2023-07-13T13:20:14;10;9;
47741;PMS5003;33504;52.066;6.096;2023-07-13T13:22:42;10;10;
47741;PMS5003;33504;52.066;6.096;2023-07-13T13:25:10;10;10;
47741;PMS5003;33504;52.066;6.096;2023-07-13T13:27:37;12;10;
47741;PMS5003;33504;52.066;6.096;2023-07-13T13:30:09;13;12;
47741;PMS5003;33504;52.066;6.096;2023-07-13T13:32:38;8;8;
47741;PMS5003;33504;52.066;6.096;2023-07-13T13:35:07;11;11;
47741;PMS5003;33504;52.066;6.096;2023-07-13T13:37:40;11;10;
47741;PMS5003;33504;52.066;6.096;2023-07-13T13:40:13;10;10;
47741;PMS5003;33504;52.066;6.096;2023-07-13T13:42:41;8;7;
47741;PMS5003;33504;52.066;6.096;2023-07-13T13:45:09;9;9;
47741;PMS5003;33504;52.066;6.096;2023-07-13T13:47:38;8;8;
47741;PMS5003;33504;52.066;6.096;2023-07-13T13:50:11;12;9;
47741;PMS5003;33504;52.066;6.096;2023-07-13T13:52:39;9;9;
47741;PMS5003;33504;52.066;6.096;2023-07-13T13:55:11;11;10;
47741;PMS5003;33504;52.066;6.096;2023-07-13T13:57:39;10;10;
47741;PMS5003;33504;52.066;6.096;2023-07-13T14:00:07;13;13;
47741;PMS5003;33504;52.066;6.096;2023-07-13T14:02:36;9;9;
47741;PMS5003;33504;52.066;6.096;2023-07-13T14:05:03;10;9;
47741;PMS5003;33504;52.066;6.096;2023-07-13T14:07:32;12;11;
47741;PMS5003;33504;52.066;6.096;2023-07-13T14:10:00;11;11;
47741;PMS5003;33504;52.066;6.096;2023-07-13T14:12:27;9;9;
47741;PMS5003;33504;52.066;6.096;2023-07-13T14:14:55;10;9;
47741;PMS5003;33504;52.066;6.096;2023-07-13T14:17:24;9;9;
47741;PMS5003;33504;52.066;6.096;2023-07-13T14:19:53;10;10;
47741;PMS5003;33504;52.066;6.096;2023-07-13T14:22:20;10;9;
47741;PMS5003;33504;52.066;6.096;2023-07-13T14:24:48;8;8;
47741;PMS5003;33504;52.066;6.096;2023-07-13T14:27:15;10;9;
47741;PMS5003;33504;52.066;6.096;2023-07-13T14:29:42;9;9;
47741;PMS5003;33504;52.066;6.096;2023-07-13T14:32:10;8;8;
47741;PMS5003;33504;52.066;6.096;2023-07-13T14:34:38;10;10;
47741;PMS5003;33504;52.066;6.096;2023-07-13T14:37:05;11;11;
47741;PMS5003;33504;52.066;6.096;2023-07-13T14:39:40;10;10;
47741;PMS5003;33504;52.066;6.096;2023-07-13T14:42:09;7;7;
47741;PMS5003;33504;52.066;6.096;2023-07-13T14:44:37;7;7;
47741;PMS5003;33504;52.066;6.096;2023-07-13T14:47:05;9;8;
47741;PMS5003;33504;52.066;6.096;2023-07-13T14:49:34;7;7;
47741;PMS5003;33504;52.066;6.096;2023-07-13T14:52:05;8;7;
47741;PMS5003;33504;52.066;6.096;2023-07-13T14:54:39;7;7;
47741;PMS5003;33504;52.066;6.096;2023-07-13T14:57:09;7;7;
47741;PMS5003;33504;52.066;6.096;2023-07-13T14:59:36;8;7;
47741;PMS5003;33504;52.066;6.096;2023-07-13T15:02:09;6;6;
47741;PMS5003;33504;52.066;6.096;2023-07-13T15:04:42;7;7;
47741;PMS5003;33504;52.066;6.096;2023-07-13T15:07:10;5;5;
47741;PMS5003;33504;52.066;6.096;2023-07-13T15:09:37;6;6;
47741;PMS5003;33504;52.066;6.096;2023-07-13T15:12:05;6;6;
47741;PMS5003;33504;52.066;6.096;2023-07-13T15:14:33;7;7;
47741;PMS5003;33504;52.066;6.096;2023-07-13T15:17:00;6;6;
47741;PMS5003;33504;52.066;6.096;2023-07-13T15:19:28;6;6;
47741;PMS5003;33504;52.066;6.096;2023-07-13T15:21:55;9;7;
47741;PMS5003;33504;52.066;6.096;2023-07-13T15:24:23;9;9;
47741;PMS5003;33504;52.066;6.096;2023-07-13T15:26:51;9;9;
47741;PMS5003;33504;52.066;6.096;2023-07-13T15:29:18;9;9;
47741;PMS5003;33504;52.066;6.096;2023-07-13T15:31:45;6;6;
47741;PMS5003;33504;52.066;6.096;2023-07-13T15:34:13;8;8;
47741;PMS5003;33504;52.066;6.096;2023-07-13T15:36:42;7;7;
47741;PMS5003;33504;52.066;6.096;2023-07-13T15:39:13;7;7;
47741;PMS5003;33504;52.066;6.096;2023-07-13T15:41:41;7;7;
47741;PMS5003;33504;52.066;6.096;2023-07-13T15:44:19;7;7;
47741;PMS5003;33504;52.066;6.096;2023-07-13T15:46:50;9;8;
47741;PMS5003;33504;52.066;6.096;2023-07-13T15:49:17;9;8;
47741;PMS5003;33504;52.066;6.096;2023-07-13T15:51:45;7;7;
47741;PMS5003;33504;52.066;6.096;2023-07-13T15:54:15;8;7;
47741;PMS5003;33504;52.066;6.096;2023-07-13T15:56:45;8;8;
47741;PMS5003;33504;52.066;6.096;2023-07-13T15:59:17;8;8;
47741;PMS5003;33504;52.066;6.096;2023-07-13T16:01:44;8;8;
47741;PMS5003;33504;52.066;6.096;2023-07-13T16:04:12;8;7;
47741;PMS5003;33504;52.066;6.096;2023-07-13T16:06:40;10;9;
47741;PMS5003;33504;52.066;6.096;2023-07-13T16:09:08;9;8;
47741;PMS5003;33504;52.066;6.096;2023-07-13T16:11:43;8;8;
47741;PMS5003;33504;52.066;6.096;2023-07-13T16:14:11;7;7;
47741;PMS5003;33504;52.066;6.096;2023-07-13T16:16:40;8;8;
47741;PMS5003;33504;52.066;6.096;2023-07-13T16:19:09;8;7;
47741;PMS5003;33504;52.066;6.096;2023-07-13T16:21:38;7;7;
47741;PMS5003;33504;52.066;6.096;2023-07-13T16:24:08;9;9;
47741;PMS5003;33504;52.066;6.096;2023-07-13T16:26:43;7;7;
47741;PMS5003;33504;52.066;6.096;2023-07-13T16:29:11;9;9;
47741;PMS5003;33504;52.066;6.096;2023-07-13T16:31:39;7;7;
47741;PMS5003;33504;52.066;6.096;2023-07-13T16:34:07;10;10;
47741;PMS5003;33504;52.066;6.096;2023-07-13T16:36:34;8;7;
47741;PMS5003;33504;52.066;6.096;2023-07-13T16:39:09;7;7;
47741;PMS5003;33504;52.066;6.096;2023-07-13T16:41:38;10;10;
47741;PMS5003;33504;52.066;6.096;2023-07-13T16:44:09;9;9;
47741;PMS5003;33504;52.066;6.096;2023-07-13T16:46:44;8;8;